createdAt,value
2022-11-04T00:00:08.537Z,15.02
2022-11-04T00:02:35.050Z,14.70
2022-11-04T00:05:01.417Z,14.35
2022-11-04T00:07:46.632Z,14.85
2022-11-04T00:10:12.954Z,14.57
2022-11-04T00:12:39.303Z,15.30
2022-11-04T00:15:24.844Z,15.75
2022-11-04T00:17:51.158Z,10.75
2022-11-04T00:20:36.056Z,15.77
2022-11-04T00:23:20.855Z,13.82
2022-11-04T00:26:05.902Z,13.60
2022-11-04T00:28:44.243Z,15.38
2022-11-04T00:31:29.382Z,13.65
2022-11-04T00:33:57.215Z,12.80
2022-11-04T00:36:24.760Z,13.77
2022-11-04T00:38:51.160Z,14.25
2022-11-04T00:41:27.105Z,14.23
2022-11-04T00:43:53.953Z,13.52
2022-11-04T00:46:20.436Z,13.07
2022-11-04T00:48:46.872Z,13.63
2022-11-04T00:53:44.498Z,13.30
2022-11-04T00:56:10.868Z,13.65
2022-11-04T00:58:37.301Z,12.52
2022-11-04T01:01:17.683Z,12.82
2022-11-04T01:03:44.856Z,13.02
2022-11-04T01:06:11.225Z,13.15
2022-11-04T01:08:37.540Z,12.88
2022-11-04T01:11:04.428Z,13.45
2022-11-04T01:13:31.292Z,12.98
2022-11-04T01:15:58.493Z,12.57
2022-11-04T01:18:24.895Z,12.77
2022-11-04T01:20:51.273Z,12.38
2022-11-04T01:23:17.603Z,11.63
2022-11-04T01:25:44.085Z,12.30
2022-11-04T01:28:10.800Z,11.93
2022-11-04T01:30:40.496Z,11.60
2022-11-04T01:33:06.909Z,13.07
2022-11-04T01:35:33.280Z,12.20
2022-11-04T01:37:59.602Z,10.98
2022-11-04T01:40:26.265Z,10.65
2022-11-04T01:42:52.886Z,10.98
2022-11-04T01:45:20.398Z,8.82
2022-11-04T01:47:50.347Z,8.48
2022-11-04T01:50:24.724Z,9.13
2022-11-04T01:52:54.173Z,8.32
2022-11-04T01:55:23.162Z,7.90
2022-11-04T01:57:50.272Z,8.05
2022-11-04T02:00:17.167Z,7.95
2022-11-04T02:02:51.622Z,7.93
2022-11-04T02:05:20.466Z,7.32
2022-11-04T02:07:49.752Z,7.85
2022-11-04T02:10:16.420Z,7.80
2022-11-04T02:12:51.885Z,7.18
2022-11-04T02:15:30.252Z,7.82
2022-11-04T02:18:05.570Z,7.70
2022-11-04T02:20:41.220Z,7.30
2022-11-04T02:25:40.310Z,8.25
2022-11-04T02:28:25.591Z,8.93
2022-11-04T02:30:55.071Z,8.48
2022-11-04T02:33:21.408Z,8.40
2022-11-04T02:36:06.820Z,8.23
2022-11-04T02:38:42.515Z,8.85
2022-11-04T02:41:21.161Z,9.27
2022-11-04T02:44:06.222Z,9.63
2022-11-04T02:46:44.540Z,9.75
2022-11-04T02:49:15.957Z,8.93
2022-11-04T02:51:54.972Z,9.30
2022-11-04T02:54:33.267Z,9.55
2022-11-04T02:57:01.950Z,9.75
2022-11-04T02:59:35.777Z,9.00
2022-11-04T03:02:05.348Z,8.65
2022-11-04T03:04:34.314Z,9.48
2022-11-04T03:07:01.374Z,8.50
2022-11-04T03:09:28.763Z,9.88
2022-11-04T03:12:02.434Z,8.93
2022-11-04T03:14:35.913Z,8.93
2022-11-04T03:17:04.473Z,8.70
2022-11-04T03:19:36.818Z,8.60
2022-11-04T03:22:22.921Z,9.75
2022-11-04T03:27:18.974Z,9.32
2022-11-04T03:29:51.383Z,10.00
2022-11-04T03:32:26.746Z,10.75
2022-11-04T03:34:53.252Z,9.90
2022-11-04T03:37:19.646Z,9.80
2022-11-04T03:39:46.673Z,9.93
2022-11-04T03:42:22.755Z,9.52
2022-11-04T03:44:50.316Z,9.57
2022-11-04T03:47:18.578Z,9.15
2022-11-04T03:49:46.118Z,9.07
2022-11-04T03:52:12.676Z,9.60
2022-11-04T03:54:39.379Z,9.43
2022-11-04T03:57:14.918Z,9.73
2022-11-04T04:04:36.436Z,9.07
2022-11-04T04:07:11.882Z,9.07
2022-11-04T04:09:40.065Z,9.20
2022-11-04T04:12:09.483Z,9.35
2022-11-04T04:14:41.421Z,10.00
2022-11-04T04:17:13.947Z,10.20
2022-11-04T04:19:42.431Z,10.45
2022-11-04T04:22:18.065Z,11.18
2022-11-04T04:27:33.939Z,11.10
2022-11-04T04:30:01.683Z,12.38
2022-11-04T04:32:29.556Z,12.88
2022-11-04T04:35:15.911Z,12.70
2022-11-04T04:37:44.090Z,12.77
2022-11-04T04:40:30.880Z,13.68
2022-11-04T04:43:15.850Z,12.90
2022-11-04T04:45:43.108Z,13.50
2022-11-04T04:48:11.586Z,13.50
2022-11-04T04:53:25.112Z,14.48
2022-11-04T04:55:55.171Z,12.20
2022-11-04T04:58:21.793Z,13.20
2022-11-04T05:00:48.455Z,13.25
2022-11-04T05:03:15.000Z,12.55
2022-11-04T05:05:41.637Z,12.65
2022-11-04T05:08:08.706Z,12.82
2022-11-04T05:10:35.386Z,13.45
2022-11-04T05:13:20.683Z,13.10
2022-11-04T05:15:47.076Z,12.23
2022-11-04T05:18:13.483Z,12.25
2022-11-04T05:20:40.419Z,12.77
2022-11-04T05:23:07.426Z,12.50
2022-11-04T05:25:37.021Z,11.82
2022-11-04T05:28:09.599Z,11.85
2022-11-04T05:30:36.433Z,11.88
2022-11-04T05:33:05.056Z,12.57
2022-11-04T05:35:32.311Z,12.18
2022-11-04T05:37:58.604Z,12.90
2022-11-04T05:40:25.208Z,12.38
2022-11-04T05:42:51.534Z,12.13
2022-11-04T05:45:17.958Z,12.20
2022-11-04T05:47:45.062Z,13.38
2022-11-04T05:50:11.424Z,12.93
2022-11-04T05:52:37.799Z,12.68
2022-11-04T05:55:04.309Z,12.68
2022-11-04T05:57:30.680Z,12.13
2022-11-04T05:59:57.114Z,12.48
2022-11-04T06:02:23.749Z,12.77
2022-11-04T06:04:50.204Z,12.40
2022-11-04T06:07:16.605Z,13.02
2022-11-04T06:09:42.954Z,12.52
2022-11-04T06:12:11.078Z,12.30
2022-11-04T06:14:37.486Z,12.80
2022-11-04T06:17:04.226Z,13.02
2022-11-04T06:19:30.790Z,12.80
2022-11-04T06:21:57.451Z,12.45
2022-11-04T06:24:23.935Z,12.98
2022-11-04T06:26:50.257Z,12.82
2022-11-04T06:29:16.801Z,12.90
2022-11-04T06:31:43.109Z,12.70
2022-11-04T06:34:09.463Z,11.55
2022-11-04T06:36:36.243Z,13.95
2022-11-04T06:39:05.059Z,11.95
2022-11-04T06:41:31.768Z,13.15
2022-11-04T06:43:58.312Z,12.75
2022-11-04T06:46:26.028Z,12.52
2022-11-04T06:48:52.836Z,12.25
2022-11-04T06:51:19.345Z,12.93
2022-11-04T06:53:45.719Z,12.60
2022-11-04T06:56:12.217Z,13.23
2022-11-04T06:58:38.777Z,12.95
2022-11-04T07:01:12.608Z,12.25
2022-11-04T07:03:41.170Z,12.15
2022-11-04T07:06:08.656Z,11.77
2022-11-04T07:08:34.992Z,11.82
2022-11-04T07:11:01.585Z,11.48
2022-11-04T07:13:27.957Z,10.48
2022-11-04T07:15:54.339Z,10.50
2022-11-04T07:18:21.016Z,10.23
2022-11-04T07:20:47.513Z,10.13
2022-11-04T07:23:13.851Z,9.98
2022-11-04T07:25:40.555Z,10.75
2022-11-04T07:28:07.005Z,9.90
2022-11-04T07:30:33.399Z,11.13
2022-11-04T07:32:59.750Z,11.25
2022-11-04T07:35:26.144Z,10.88
2022-11-04T07:37:52.502Z,10.40
2022-11-04T07:40:18.859Z,10.50
2022-11-04T07:42:45.212Z,10.80
2022-11-04T07:45:11.600Z,10.20
2022-11-04T07:47:38.030Z,9.50
2022-11-04T07:50:09.735Z,9.70
2022-11-04T07:52:37.214Z,10.15
2022-11-04T07:55:03.658Z,9.85
2022-11-04T07:57:29.993Z,9.57
2022-11-04T07:59:56.379Z,9.88
2022-11-04T08:02:27.627Z,9.57
2022-11-04T08:04:55.069Z,10.23
2022-11-04T08:07:21.574Z,9.27
2022-11-04T08:09:47.939Z,8.50
2022-11-04T08:12:14.577Z,8.50
2022-11-04T08:14:40.943Z,8.77
2022-11-04T08:17:07.312Z,8.90
2022-11-04T08:19:33.710Z,8.75
2022-11-04T08:22:00.055Z,8.10
2022-11-04T08:24:26.560Z,8.68
2022-11-04T08:26:53.211Z,7.85
2022-11-04T08:29:19.665Z,7.55
2022-11-04T08:31:46.646Z,7.47
2022-11-04T08:34:14.700Z,6.70
2022-11-04T08:36:41.052Z,6.28
2022-11-04T08:39:11.011Z,6.80
2022-11-04T08:41:40.886Z,5.07
2022-11-04T08:44:07.721Z,5.40
2022-11-04T08:46:35.948Z,5.45
2022-11-04T08:49:09.460Z,4.95
2022-11-04T08:51:38.489Z,5.43
2022-11-04T08:54:05.481Z,4.53
2022-11-04T08:56:32.981Z,4.75
2022-11-04T08:58:59.682Z,5.47
2022-11-04T09:01:30.048Z,5.60
2022-11-04T09:04:00.791Z,5.10
2022-11-04T09:06:29.340Z,5.15
2022-11-04T09:08:59.802Z,5.45
2022-11-04T09:11:26.444Z,5.53
2022-11-04T09:13:55.750Z,5.68
2022-11-04T09:16:22.684Z,5.07
2022-11-04T09:18:49.094Z,5.22
2022-11-04T09:21:15.562Z,5.60
2022-11-04T09:23:41.978Z,5.85
2022-11-04T09:26:12.995Z,5.32
2022-11-04T09:28:40.407Z,5.32
2022-11-04T09:31:14.635Z,4.88
2022-11-04T09:33:41.152Z,4.93
2022-11-04T09:36:09.146Z,4.80
2022-11-04T09:38:36.195Z,4.45
2022-11-04T09:41:08.243Z,4.45
2022-11-04T09:43:47.152Z,4.05
2022-11-04T09:46:13.878Z,4.07
2022-11-04T09:48:45.687Z,4.30
2022-11-04T09:51:26.182Z,4.40
2022-11-04T09:54:00.787Z,4.20
2022-11-04T09:56:33.380Z,4.30
2022-11-04T09:58:59.766Z,4.30
2022-11-04T10:01:37.456Z,3.97
2022-11-04T10:04:03.820Z,4.15
2022-11-04T10:06:48.854Z,3.92
2022-11-04T10:09:15.297Z,4.35
2022-11-04T10:11:56.137Z,4.65
2022-11-04T10:14:22.506Z,4.65
2022-11-04T10:16:58.247Z,4.32
2022-11-04T10:21:57.336Z,4.35
2022-11-04T10:24:29.847Z,4.07
2022-11-04T10:27:10.693Z,3.70
2022-11-04T10:29:38.263Z,4.18
2022-11-04T10:32:19.525Z,3.78
2022-11-04T10:34:57.508Z,4.13
2022-11-04T10:37:25.459Z,3.78
2022-11-04T10:39:52.972Z,4.40
2022-11-04T10:42:22.155Z,4.40
2022-11-04T10:44:49.685Z,4.47
2022-11-04T10:47:16.098Z,4.57
2022-11-04T10:50:13.895Z,4.68
2022-11-04T10:52:36.201Z,4.43
2022-11-04T10:55:03.013Z,4.57
2022-11-04T10:57:29.579Z,4.20
2022-11-04T10:59:55.978Z,4.15
2022-11-04T11:02:37.655Z,4.18
2022-11-04T11:05:14.545Z,4.40
2022-11-04T11:07:41.062Z,3.80
2022-11-04T11:10:16.323Z,3.65
2022-11-04T11:12:52.010Z,4.03
2022-11-04T11:15:29.603Z,3.88
2022-11-04T11:18:00.240Z,3.22
2022-11-04T11:20:27.337Z,3.40
2022-11-04T11:22:54.815Z,3.55
2022-11-04T11:25:21.584Z,3.50
2022-11-04T11:27:49.943Z,3.28
2022-11-04T11:30:42.166Z,3.40
2022-11-04T11:33:17.195Z,2.70
2022-11-04T11:35:54.194Z,1.58
2022-11-04T11:38:25.620Z,2.30
2022-11-04T11:41:22.720Z,2.00
2022-11-04T11:43:44.027Z,1.90
2022-11-04T11:46:11.185Z,2.30
2022-11-04T11:48:42.845Z,2.13
2022-11-04T11:51:13.215Z,2.20
2022-11-04T11:53:45.642Z,2.20
2022-11-04T11:56:15.041Z,2.20
2022-11-04T12:01:56.342Z,2.63
2022-11-04T12:10:29.888Z,2.28
2022-11-04T12:13:23.666Z,1.75
2022-11-04T12:15:59.132Z,1.90
2022-11-04T12:18:28.523Z,2.20
2022-11-04T12:21:16.848Z,1.98
2022-11-04T12:23:51.293Z,2.00
2022-11-04T12:26:50.749Z,1.77
2022-11-04T12:29:40.535Z,2.17
2022-11-04T12:32:07.792Z,2.50
2022-11-04T12:34:37.224Z,2.10
2022-11-04T12:37:04.240Z,2.00
2022-11-04T12:39:33.678Z,2.10
2022-11-04T12:42:20.682Z,2.10
2022-11-04T12:45:02.734Z,2.13
2022-11-04T12:47:33.119Z,1.88
2022-11-04T12:50:18.392Z,1.90
2022-11-04T12:52:45.091Z,2.20
2022-11-04T12:55:24.381Z,1.92
2022-11-04T12:57:51.095Z,2.00
2022-11-04T13:00:20.885Z,1.95
2022-11-04T13:03:11.502Z,1.70
2022-11-04T13:05:38.249Z,1.80
2022-11-04T13:08:14.217Z,2.00
2022-11-04T13:10:40.941Z,1.65
2022-11-04T13:13:08.730Z,1.98
2022-11-04T13:15:43.318Z,2.28
2022-11-04T13:18:13.621Z,2.00
2022-11-04T13:20:53.042Z,1.70
2022-11-04T13:23:42.778Z,1.80
2022-11-04T13:26:14.321Z,2.33
2022-11-04T13:28:41.909Z,2.17
2022-11-04T13:31:14.658Z,1.80
2022-11-04T13:33:50.255Z,1.73
2022-11-04T13:38:45.489Z,1.88
2022-11-04T13:41:21.858Z,1.70
2022-11-04T13:43:55.913Z,1.77
2022-11-04T13:46:23.761Z,2.22
2022-11-04T13:48:56.138Z,1.58
2022-11-04T13:51:22.973Z,1.88
2022-11-04T13:53:49.284Z,1.67
2022-11-04T13:56:33.529Z,1.75
2022-11-04T13:59:21.263Z,2.00
2022-11-04T14:01:48.181Z,1.60
2022-11-04T14:04:15.390Z,1.60
2022-11-04T14:06:57.209Z,1.60
2022-11-04T14:09:23.532Z,1.92
2022-11-04T14:12:08.952Z,2.10
2022-11-04T14:14:35.525Z,1.80
2022-11-04T14:17:04.440Z,1.67
2022-11-04T14:19:47.895Z,1.88
2022-11-04T14:22:15.458Z,1.63
2022-11-04T14:24:42.045Z,1.75
2022-11-04T14:27:23.954Z,2.10
2022-11-04T14:29:51.793Z,1.95
2022-11-04T14:32:19.263Z,2.30
2022-11-04T14:34:46.011Z,3.30
2022-11-04T14:37:15.317Z,2.38
2022-11-04T14:39:42.294Z,2.38
2022-11-04T14:42:12.398Z,2.88
2022-11-04T14:44:38.814Z,1.90
2022-11-04T14:47:14.745Z,2.53
2022-11-04T14:49:44.209Z,2.40
2022-11-04T14:52:16.755Z,2.58
2022-11-04T14:54:43.316Z,2.70
2022-11-04T14:57:17.693Z,2.40
2022-11-04T14:59:44.443Z,2.80
2022-11-04T15:02:16.539Z,2.38
2022-11-04T15:04:57.639Z,2.33
2022-11-04T15:07:37.842Z,2.83
2022-11-04T15:10:24.792Z,2.40
2022-11-04T15:12:51.928Z,2.83
2022-11-04T15:15:25.121Z,2.33
2022-11-04T15:17:51.573Z,2.70
2022-11-04T15:20:23.486Z,2.72
2022-11-04T15:22:49.951Z,3.00
2022-11-04T15:25:16.570Z,2.85
2022-11-04T15:27:43.360Z,4.15
2022-11-04T15:30:20.228Z,3.85
2022-11-04T15:32:56.203Z,3.70
2022-11-04T15:35:22.907Z,3.92
2022-11-04T15:37:51.193Z,3.95
2022-11-04T15:40:18.040Z,4.10
2022-11-04T15:45:18.769Z,3.35
2022-11-04T15:47:45.134Z,3.55
2022-11-04T15:50:16.619Z,4.22
2022-11-04T15:52:48.079Z,4.20
2022-11-04T15:55:19.756Z,4.95
2022-11-04T15:57:46.143Z,4.00
2022-11-04T16:00:15.550Z,4.30
2022-11-04T16:02:52.916Z,4.07
2022-11-04T16:05:19.319Z,3.90
2022-11-04T16:07:47.053Z,4.05
2022-11-04T16:10:30.523Z,4.38
2022-11-04T16:13:20.814Z,4.03
2022-11-04T16:15:50.207Z,4.57
2022-11-04T16:18:24.417Z,4.30
2022-11-04T16:20:53.018Z,5.18
2022-11-04T16:23:21.565Z,4.93
2022-11-04T16:25:55.902Z,5.13
2022-11-04T16:28:22.475Z,4.72
2022-11-04T16:30:57.814Z,4.63
2022-11-04T16:33:24.254Z,4.68
2022-11-04T16:35:50.533Z,5.20
2022-11-04T16:38:16.875Z,4.63
2022-11-04T16:40:44.495Z,4.47
2022-11-04T16:43:11.392Z,5.43
2022-11-04T16:45:41.296Z,5.13
2022-11-04T16:48:16.182Z,5.68
2022-11-04T16:50:42.546Z,4.88
2022-11-04T16:53:09.162Z,5.55
2022-11-04T16:55:36.057Z,5.28
2022-11-04T16:58:03.959Z,5.93
2022-11-04T17:00:33.540Z,5.75
2022-11-04T17:03:00.672Z,5.75
2022-11-04T17:05:27.174Z,5.15
2022-11-04T17:07:57.696Z,4.97
2022-11-04T17:10:29.553Z,4.63
2022-11-04T17:12:56.179Z,5.55
2022-11-04T17:15:22.542Z,4.97
2022-11-04T17:17:48.883Z,4.85
2022-11-04T17:20:17.685Z,4.40
2022-11-04T17:22:44.565Z,5.15
2022-11-04T17:25:15.021Z,5.93
2022-11-04T17:27:41.308Z,5.97
2022-11-04T17:30:07.955Z,6.85
2022-11-04T17:32:34.309Z,6.88
2022-11-04T17:35:00.611Z,6.30
2022-11-04T17:37:27.427Z,6.53
2022-11-04T17:39:53.780Z,5.93
2022-11-04T17:42:38.909Z,6.90
2022-11-04T17:45:05.365Z,6.25
2022-11-04T17:47:35.279Z,5.95
2022-11-04T17:50:01.833Z,5.80
2022-11-04T17:52:28.181Z,5.78
2022-11-04T17:54:54.541Z,5.53
2022-11-04T17:57:20.852Z,6.13
2022-11-04T17:59:47.234Z,5.60
2022-11-04T18:02:13.659Z,5.05
2022-11-04T18:04:40.235Z,7.13
2022-11-04T18:07:06.630Z,9.70
2022-11-04T18:09:34.989Z,8.15
2022-11-04T18:12:20.191Z,5.60
2022-11-04T18:14:46.680Z,5.10
2022-11-04T18:17:13.084Z,5.22
2022-11-04T18:19:39.999Z,5.30
2022-11-04T18:22:06.721Z,5.57
2022-11-04T18:24:33.220Z,5.82
2022-11-04T18:27:00.842Z,5.63
2022-11-04T18:29:27.284Z,5.32
2022-11-04T18:31:54.103Z,5.00
2022-11-04T18:34:20.502Z,5.38
2022-11-04T18:36:48.010Z,5.18
2022-11-04T18:39:15.732Z,6.53
2022-11-04T18:41:42.452Z,5.20
2022-11-04T18:44:12.674Z,5.38
2022-11-04T18:46:39.042Z,5.22
2022-11-04T18:49:05.334Z,5.65
2022-11-04T18:51:31.763Z,5.10
2022-11-04T18:53:58.205Z,5.68
2022-11-04T18:56:24.596Z,5.82
2022-11-04T18:58:51.176Z,6.53
2022-11-04T19:01:24.026Z,6.80
2022-11-04T19:03:51.004Z,7.43
2022-11-04T19:06:21.970Z,9.00
2022-11-04T19:08:50.421Z,8.70
2022-11-04T19:11:21.776Z,8.38
2022-11-04T19:13:56.644Z,7.68
2022-11-04T19:16:25.287Z,8.50
2022-11-04T19:18:54.177Z,7.57
2022-11-04T19:21:22.160Z,6.47
2022-11-04T19:23:48.617Z,6.65
2022-11-04T19:26:25.894Z,6.05
2022-11-04T19:28:52.474Z,5.97
2022-11-04T19:31:20.950Z,6.35
2022-11-04T19:33:47.500Z,6.38
2022-11-04T19:36:15.106Z,7.22
2022-11-04T19:38:41.761Z,5.80
2022-11-04T19:41:31.140Z,5.93
2022-11-04T19:43:57.670Z,5.63
2022-11-04T19:46:24.332Z,6.28
2022-11-04T19:48:51.094Z,6.43
2022-11-04T19:51:17.685Z,6.97
2022-11-04T19:53:44.240Z,6.38
2022-11-04T19:56:17.243Z,6.32
2022-11-04T19:58:44.345Z,6.43
2022-11-04T20:01:11.209Z,6.60
2022-11-04T20:03:37.630Z,6.18
2022-11-04T20:06:04.146Z,6.47
2022-11-04T20:08:31.062Z,6.50
2022-11-04T20:11:01.298Z,6.25
2022-11-04T20:13:46.612Z,6.03
2022-11-04T20:16:15.832Z,5.68
2022-11-04T20:18:42.258Z,5.88
2022-11-04T20:21:09.074Z,5.00
2022-11-04T20:23:36.073Z,5.20
2022-11-04T20:26:06.894Z,5.38
2022-11-04T20:28:33.299Z,4.75
2022-11-04T20:30:59.632Z,5.85
2022-11-04T20:33:26.078Z,5.57
2022-11-04T20:35:52.439Z,5.95
2022-11-04T20:38:18.921Z,6.25
2022-11-04T20:40:47.517Z,5.78
2022-11-04T20:43:13.893Z,6.25
2022-11-04T20:45:40.228Z,6.45
2022-11-04T20:48:06.617Z,6.13
2022-11-04T20:50:33.071Z,5.80
2022-11-04T20:52:59.515Z,5.80
2022-11-04T20:55:27.813Z,5.20
2022-11-04T20:57:54.261Z,5.30
2022-11-04T21:00:21.222Z,4.95
2022-11-04T21:02:47.586Z,5.38
2022-11-04T21:05:15.040Z,5.30
2022-11-04T21:07:41.535Z,5.88
2022-11-04T21:10:08.038Z,5.30
2022-11-04T21:12:34.428Z,5.25
2022-11-04T21:15:00.768Z,5.32
2022-11-04T21:17:27.304Z,5.18
2022-11-04T21:19:54.449Z,5.47
2022-11-04T21:22:20.763Z,5.82
2022-11-04T21:24:47.095Z,5.60
2022-11-04T21:27:13.728Z,6.22
2022-11-04T21:29:40.146Z,5.28
2022-11-04T21:32:06.659Z,5.43
2022-11-04T21:34:33.254Z,5.80
2022-11-04T21:36:59.623Z,6.05
2022-11-04T21:39:26.510Z,5.85
2022-11-04T21:41:52.882Z,5.82
2022-11-04T21:44:19.230Z,6.32
2022-11-04T21:46:46.314Z,7.30
2022-11-04T21:49:12.753Z,7.25
2022-11-04T21:51:39.194Z,7.82
2022-11-04T21:54:09.892Z,7.88
2022-11-04T21:56:36.400Z,8.70
2022-11-04T21:59:03.492Z,8.18
2022-11-04T22:01:30.947Z,8.68
2022-11-04T22:04:01.614Z,8.88
2022-11-04T22:06:33.667Z,8.90
2022-11-04T22:09:01.855Z,8.93
2022-11-04T22:11:29.239Z,10.05
2022-11-04T22:13:59.689Z,10.63
2022-11-04T22:16:27.505Z,10.75
2022-11-04T22:18:55.313Z,10.75
2022-11-04T22:21:22.563Z,10.88
2022-11-04T22:23:48.934Z,10.50
2022-11-04T22:26:20.137Z,10.70
2022-11-04T22:28:46.698Z,10.43
2022-11-04T22:31:14.555Z,10.30
2022-11-04T22:33:41.115Z,10.75
2022-11-04T22:36:07.751Z,10.65
2022-11-04T22:38:34.795Z,10.25
2022-11-04T22:41:02.401Z,10.57
2022-11-04T22:43:28.968Z,10.98
2022-11-04T22:45:56.212Z,11.27
2022-11-04T22:48:22.895Z,10.60
2022-11-04T22:50:56.673Z,10.45
2022-11-04T22:53:23.373Z,10.52
2022-11-04T22:55:50.115Z,11.75
2022-11-04T22:58:16.455Z,11.63
2022-11-04T23:00:42.822Z,11.82
2022-11-04T23:03:09.544Z,11.20
2022-11-04T23:05:36.309Z,10.80
2022-11-04T23:08:02.690Z,11.68
2022-11-04T23:10:51.941Z,11.20
2022-11-04T23:13:37.135Z,11.68
2022-11-04T23:16:22.078Z,12.80
2022-11-04T23:18:50.285Z,12.00
2022-11-04T23:21:37.106Z,11.63
2022-11-04T23:24:22.279Z,12.07
2022-11-04T23:26:48.666Z,11.27
2022-11-04T23:29:33.847Z,10.98
2022-11-04T23:32:00.179Z,10.20
2022-11-04T23:34:45.443Z,11.35
2022-11-04T23:37:12.159Z,10.90
2022-11-04T23:39:48.177Z,11.02
2022-11-04T23:42:18.650Z,10.98
2022-11-04T23:45:13.658Z,10.98
2022-11-04T23:48:05.327Z,10.65
2022-11-04T23:50:52.312Z,10.48
2022-11-04T23:53:37.939Z,10.68
2022-11-04T23:56:23.337Z,11.68
2022-11-04T23:59:08.122Z,10.27
